KAPC/APC METAR and TAF weather

Enter ICAO airport designator
Station Type Date Time Source
KAPC METAR 2019/05/23 18:54 UTC NOAA

KAPC 231854Z 21013KT 10SM SCT038 20/13 A2980 RMK AO2 SLP081 T02000133


Station Type Date Time Source
KAPC Decoded METAR 2019/05/23 18:54 UTC NOAA

NAPA COUNTY AIRPORT, CA, United States (KAPC) 38-12N 122-17W 13M
May 23, 2019 - 02:54 PM EDT / 2019.05.23 1854 UTC
Wind: from the SSW (210 degrees) at 15 MPH (13 KT):0
Visibility: 10 mile(s):0
Sky conditions: partly cloudy
Temperature: 68.0 F (20.0 C)
Dew Point: 55.9 F (13.3 C)
Relative Humidity: 65%
Pressure (altimeter): 29.8 in. Hg (1009 hPa)
ob: KAPC 231854Z 21013KT 10SM SCT038 20/13 A2980 RMK AO2 SLP081 T02000133
cycle: 19

Station Type Date Time Source
KAPC TAF 2016/02/08 18:39 UTC NOAA

TAF KAPC 081738Z 0818/0918 08008KT P6SM SKC
FM081900 09012KT P6SM SKC
FM090000 07007KT P6SM SKC
FM090600 04004KT P6SM SKC

Example: see airport list